createdAt,value
2022-09-04T00:01:54.878Z,12.09
2022-09-04T00:04:35.025Z,12.08
2022-09-04T00:07:19.667Z,12.00
2022-09-04T00:10:03.729Z,11.89
2022-09-04T00:12:41.945Z,11.86
2022-09-04T00:15:19.479Z,11.78
2022-09-04T00:17:57.915Z,11.77
2022-09-04T00:20:37.548Z,11.78
2022-09-04T00:23:15.132Z,11.85
2022-09-04T00:25:54.896Z,11.81
2022-09-04T00:28:35.378Z,11.91
2022-09-04T00:31:14.960Z,11.95
2022-09-04T00:33:52.898Z,11.70
2022-09-04T00:36:25.490Z,11.79
2022-09-04T00:39:01.115Z,11.70
2022-09-04T00:41:35.744Z,11.83
2022-09-04T00:44:24.246Z,11.92
2022-09-04T00:47:39.158Z,11.77
2022-09-04T00:50:36.468Z,11.70
2022-09-04T00:53:37.529Z,11.72
2022-09-04T00:56:32.304Z,11.66
2022-09-04T00:59:12.415Z,11.59
2022-09-04T01:01:42.093Z,11.63
2022-09-04T01:04:32.214Z,11.74
2022-09-04T01:07:24.044Z,11.67
2022-09-04T01:10:20.757Z,11.71
2022-09-04T01:12:57.865Z,11.73
2022-09-04T01:15:37.357Z,11.63
2022-09-04T01:18:17.452Z,11.58
2022-09-04T01:21:12.059Z,11.69
2022-09-04T01:23:59.930Z,11.75
2022-09-04T01:26:39.159Z,11.57
2022-09-04T01:29:24.717Z,11.59
2022-09-04T01:32:03.099Z,11.57
2022-09-04T01:34:42.363Z,11.65
2022-09-04T01:37:28.603Z,11.75
2022-09-04T01:40:04.206Z,11.70
2022-09-04T01:42:45.747Z,11.80
2022-09-04T01:45:20.228Z,11.85
2022-09-04T01:47:52.693Z,11.85
2022-09-04T01:50:27.502Z,11.83
2022-09-04T01:53:03.958Z,11.78
2022-09-04T01:55:38.891Z,11.82
2022-09-04T01:58:24.063Z,11.71
2022-09-04T02:01:00.517Z,11.54
2022-09-04T02:03:40.389Z,11.50
2022-09-04T02:06:22.293Z,11.52
2022-09-04T02:09:15.557Z,11.61
2022-09-04T02:11:57.051Z,11.58
2022-09-04T02:14:40.380Z,11.71
2022-09-04T02:17:18.451Z,11.65
2022-09-04T02:20:03.546Z,11.67
2022-09-04T02:22:45.101Z,11.58
2022-09-04T02:25:24.070Z,11.56
2022-09-04T02:28:08.311Z,11.54
2022-09-04T02:30:46.107Z,11.38
2022-09-04T02:33:35.516Z,11.37
2022-09-04T02:36:12.031Z,11.28
2022-09-04T02:38:51.247Z,11.39
2022-09-04T02:41:28.110Z,11.43
2022-09-04T02:44:14.452Z,11.45
2022-09-04T02:46:57.396Z,11.58
2022-09-04T02:49:35.924Z,11.54
2022-09-04T02:52:16.267Z,11.50
2022-09-04T02:55:01.869Z,11.39
2022-09-04T02:57:47.870Z,11.47
2022-09-04T03:00:21.578Z,11.49
2022-09-04T03:03:02.290Z,11.50
2022-09-04T03:05:35.154Z,11.40
2022-09-04T03:08:10.102Z,11.43
2022-09-04T03:15:48.014Z,11.32
2022-09-04T03:18:25.191Z,11.29
2022-09-04T03:20:59.443Z,11.29
2022-09-04T03:23:40.489Z,11.29
2022-09-04T03:26:28.047Z,11.21
2022-09-04T03:29:10.363Z,11.12
2022-09-04T03:31:47.877Z,11.20
2022-09-04T03:34:38.487Z,11.09
2022-09-04T03:37:32.291Z,11.09
2022-09-04T03:40:20.000Z,11.05
2022-09-04T03:43:10.807Z,11.09
2022-09-04T03:45:50.527Z,10.77
2022-09-04T03:48:35.472Z,10.86
2022-09-04T03:51:16.257Z,10.82
2022-09-04T03:53:50.971Z,10.89
2022-09-04T03:56:43.308Z,10.83
2022-09-04T03:59:24.443Z,10.79
2022-09-04T04:01:59.946Z,10.81
2022-09-04T04:05:10.167Z,10.99
2022-09-04T04:07:52.648Z,10.76
2022-09-04T04:10:33.838Z,10.96
2022-09-04T04:13:18.169Z,11.03
2022-09-04T04:15:59.187Z,11.01
2022-09-04T04:18:49.674Z,10.94
2022-09-04T04:21:32.121Z,11.12
2022-09-04T04:24:29.048Z,11.23
2022-09-04T04:27:13.797Z,11.17
2022-09-04T04:30:06.365Z,11.35
2022-09-04T04:33:01.210Z,11.20
2022-09-04T04:35:37.770Z,11.29
2022-09-04T04:38:19.630Z,11.43
2022-09-04T04:41:06.580Z,11.57
2022-09-04T04:43:52.103Z,11.54
2022-09-04T04:46:37.088Z,11.51
2022-09-04T04:49:26.271Z,11.64
2022-09-04T04:52:21.677Z,11.59
2022-09-04T04:55:05.593Z,11.78
2022-09-04T04:57:46.341Z,12.15
2022-09-04T05:00:22.844Z,12.11
2022-09-04T05:03:09.338Z,12.05
2022-09-04T05:05:56.317Z,12.04
2022-09-04T05:08:37.122Z,12.20
2022-09-04T05:11:18.532Z,12.38
2022-09-04T05:13:58.631Z,12.41
2022-09-04T05:16:37.209Z,12.13
2022-09-04T05:19:16.563Z,11.73
2022-09-04T05:21:55.140Z,11.87
2022-09-04T05:24:33.598Z,11.84
2022-09-04T05:27:10.032Z,11.90
2022-09-04T05:29:51.894Z,12.14
2022-09-04T05:32:30.082Z,12.28
2022-09-04T05:35:10.987Z,12.31
2022-09-04T05:37:52.105Z,12.55
2022-09-04T05:40:30.183Z,12.67
2022-09-04T05:43:14.978Z,12.77
2022-09-04T05:45:54.010Z,12.94
2022-09-04T05:48:29.016Z,13.03
2022-09-04T05:51:08.369Z,12.95
2022-09-04T05:54:07.572Z,13.21
2022-09-04T05:57:09.612Z,13.56
2022-09-04T06:00:06.285Z,13.84
2022-09-04T06:03:24.668Z,14.13
2022-09-04T06:06:08.404Z,14.43
2022-09-04T06:08:58.622Z,14.60
2022-09-04T06:11:49.872Z,15.02
2022-09-04T06:14:40.283Z,15.35
2022-09-04T06:17:25.403Z,15.61
2022-09-04T06:20:08.934Z,15.60
2022-09-04T06:22:57.667Z,15.53
2022-09-04T06:25:55.169Z,15.75
2022-09-04T06:28:49.718Z,15.78
2022-09-04T06:31:53.584Z,16.23
2022-09-04T06:34:35.666Z,16.30
2022-09-04T06:37:20.533Z,16.28
2022-09-04T06:40:05.661Z,16.47
2022-09-04T06:42:48.927Z,16.79
2022-09-04T06:45:31.237Z,17.01
2022-09-04T06:48:09.780Z,17.10
2022-09-04T06:50:50.414Z,17.20
2022-09-04T06:53:32.254Z,17.25
2022-09-04T06:56:14.523Z,17.63
2022-09-04T06:59:07.931Z,17.60
2022-09-04T07:01:47.360Z,17.67
2022-09-04T07:04:29.423Z,17.94
2022-09-04T07:07:08.806Z,18.13
2022-09-04T07:09:45.439Z,18.20
2022-09-04T07:12:44.262Z,18.25
2022-09-04T07:15:39.582Z,18.37
2022-09-04T07:18:24.532Z,18.68
2022-09-04T07:21:04.751Z,18.63
2022-09-04T07:23:45.445Z,18.84
2022-09-04T07:26:28.582Z,18.91
2022-09-04T07:29:27.985Z,19.10
2022-09-04T07:32:04.853Z,19.21
2022-09-04T07:34:45.259Z,19.21
2022-09-04T07:37:27.952Z,19.17
2022-09-04T07:40:09.609Z,19.55
2022-09-04T07:42:48.781Z,19.48
2022-09-04T07:45:30.118Z,19.55
2022-09-04T07:48:16.747Z,19.56
2022-09-04T07:51:04.968Z,19.44
2022-09-04T07:54:04.257Z,19.68
2022-09-04T07:56:54.619Z,19.82
2022-09-04T07:59:43.820Z,19.85
2022-09-04T08:02:31.131Z,19.86
2022-09-04T08:05:23.995Z,19.99
2022-09-04T08:08:27.904Z,20.01
2022-09-04T08:11:25.564Z,19.88
2022-09-04T08:14:24.812Z,20.32
2022-09-04T08:17:25.431Z,20.65
2022-09-04T08:20:04.455Z,20.85
2022-09-04T08:22:48.103Z,20.80
2022-09-04T08:25:28.975Z,20.94
2022-09-04T08:28:17.542Z,20.91
2022-09-04T08:30:56.107Z,21.01
2022-09-04T08:33:56.447Z,21.19
2022-09-04T08:36:38.191Z,21.03
2022-09-04T08:39:11.847Z,21.45
2022-09-04T08:42:13.361Z,21.49
2022-09-04T08:45:27.413Z,21.31
2022-09-04T08:48:25.728Z,21.29
2022-09-04T08:51:34.241Z,21.53
2022-09-04T08:54:36.188Z,21.41
2022-09-04T08:57:50.581Z,21.77
2022-09-04T09:00:21.673Z,21.52
2022-09-04T09:03:36.103Z,21.91
2022-09-04T09:06:41.945Z,22.17
2022-09-04T09:09:48.485Z,22.40
2022-09-04T09:12:53.947Z,22.64
2022-09-04T09:15:52.967Z,22.31
2022-09-04T09:18:42.530Z,22.30
2022-09-04T09:21:22.232Z,22.28
2022-09-04T09:24:25.504Z,23.36
2022-09-04T09:27:08.529Z,23.61
2022-09-04T09:30:10.412Z,23.59
2022-09-04T09:33:20.578Z,23.70
2022-09-04T09:36:23.069Z,23.65
2022-09-04T09:39:24.978Z,23.83
2022-09-04T09:42:30.279Z,24.28
2022-09-04T09:45:41.405Z,24.31
2022-09-04T09:48:39.268Z,24.69
2022-09-04T09:51:50.992Z,24.78
2022-09-04T09:55:09.266Z,24.43
2022-09-04T09:58:22.167Z,24.77
2022-09-04T10:01:08.738Z,25.34
2022-09-04T10:04:15.447Z,25.37
2022-09-04T10:07:11.540Z,26.26
2022-09-04T10:10:24.928Z,26.01
2022-09-04T10:13:29.083Z,26.28
2022-09-04T10:16:43.752Z,27.10
2022-09-04T10:19:33.977Z,26.88
2022-09-04T10:22:34.788Z,27.73
2022-09-04T10:25:43.562Z,28.51
2022-09-04T10:28:31.097Z,27.69
2022-09-04T10:31:44.832Z,30.00
2022-09-04T10:35:09.588Z,32.51
2022-09-04T10:37:57.781Z,33.99
2022-09-04T10:40:39.616Z,33.21
2022-09-04T10:43:30.426Z,34.27
2022-09-04T10:46:08.579Z,35.21
2022-09-04T10:48:55.316Z,33.17
2022-09-04T10:51:54.516Z,33.97
2022-09-04T10:54:54.316Z,33.49
2022-09-04T10:57:40.739Z,34.41
2022-09-04T11:00:13.968Z,32.80
2022-09-04T11:03:25.750Z,33.23
2022-09-04T11:06:31.246Z,33.73
2022-09-04T11:09:35.165Z,36.97
2022-09-04T11:12:41.001Z,33.71
2022-09-04T11:15:54.772Z,32.87
2022-09-04T11:19:00.157Z,35.23
2022-09-04T11:22:00.629Z,35.77
2022-09-04T11:25:21.982Z,35.34
2022-09-04T11:28:40.291Z,36.65
2022-09-04T11:31:39.946Z,35.13
2022-09-04T11:34:45.980Z,34.46
2022-09-04T11:38:08.853Z,37.14
2022-09-04T11:41:16.756Z,38.46
2022-09-04T11:44:49.688Z,36.95
2022-09-04T11:48:03.771Z,38.02
2022-09-04T11:50:45.715Z,36.83
2022-09-04T11:53:36.062Z,35.14
2022-09-04T11:56:31.086Z,36.96
2022-09-04T11:59:24.634Z,36.17
2022-09-04T12:02:20.407Z,38.41
2022-09-04T12:05:09.951Z,37.67
2022-09-04T12:08:05.179Z,36.95
2022-09-04T12:10:55.891Z,40.15
2022-09-04T12:13:58.164Z,40.95
2022-09-04T12:17:03.148Z,40.56
2022-09-04T12:20:12.751Z,38.73
2022-09-04T12:23:18.457Z,39.24
2022-09-04T12:26:19.249Z,36.32
2022-09-04T12:29:23.028Z,36.90
2022-09-04T12:32:25.389Z,39.09
2022-09-04T12:35:18.275Z,39.49
2022-09-04T12:38:11.648Z,38.42
2022-09-04T12:40:53.504Z,39.02
2022-09-04T12:43:41.739Z,40.00
2022-09-04T12:46:26.283Z,39.17
2022-09-04T12:49:11.455Z,38.72
2022-09-04T12:51:50.029Z,39.80
2022-09-04T12:54:34.676Z,40.62
2022-09-04T12:57:24.550Z,38.92
2022-09-04T13:00:03.163Z,39.93
2022-09-04T13:02:49.583Z,39.66
2022-09-04T13:05:41.750Z,40.98
2022-09-04T13:08:26.585Z,39.07
2022-09-04T13:11:10.157Z,39.90
2022-09-04T13:13:48.959Z,37.71
2022-09-04T13:16:23.504Z,39.52
2022-09-04T13:19:03.428Z,37.65
2022-09-04T13:21:51.382Z,39.20
2022-09-04T13:24:36.413Z,38.77
2022-09-04T13:27:26.593Z,38.62
2022-09-04T13:30:07.713Z,37.57
2022-09-04T13:33:18.669Z,35.90
2022-09-04T13:36:03.276Z,35.25
2022-09-04T13:39:03.444Z,37.66
2022-09-04T13:41:58.539Z,35.83
2022-09-04T13:44:57.951Z,36.50
2022-09-04T13:47:32.245Z,34.30
2022-09-04T13:50:12.684Z,36.26
2022-09-04T13:52:48.536Z,38.96
2022-09-04T13:55:23.095Z,39.57
2022-09-04T13:57:57.742Z,39.30
2022-09-04T14:00:31.477Z,37.41
2022-09-04T14:03:04.977Z,37.90
2022-09-04T14:05:37.640Z,36.95
2022-09-04T14:08:10.463Z,36.86
2022-09-04T14:11:26.323Z,37.06
2022-09-04T14:14:21.247Z,37.37
2022-09-04T14:16:55.508Z,37.22
2022-09-04T14:19:38.269Z,35.25
2022-09-04T14:22:26.553Z,33.83
2022-09-04T14:28:04.385Z,33.90
2022-09-04T14:30:29.403Z,34.87
2022-09-04T14:30:42.240Z,33.58
2022-09-04T14:33:26.338Z,34.89
2022-09-04T14:36:16.160Z,35.60
2022-09-04T14:39:09.273Z,34.70
2022-09-04T14:41:55.588Z,33.83
2022-09-04T14:44:39.313Z,33.76
2022-09-04T14:47:21.166Z,34.09
2022-09-04T14:49:56.089Z,32.21
2022-09-04T14:52:32.545Z,32.52
2022-09-04T14:55:04.456Z,32.07
2022-09-04T14:57:39.902Z,32.40
2022-09-04T15:00:17.979Z,33.09
2022-09-04T15:02:56.019Z,32.45
2022-09-04T15:05:31.445Z,33.12
2022-09-04T15:08:04.864Z,33.60
2022-09-04T15:10:50.478Z,33.29
2022-09-04T15:13:40.725Z,33.24
2022-09-04T15:16:22.296Z,31.98
2022-09-04T15:19:03.684Z,32.32
2022-09-04T15:21:43.818Z,32.36
2022-09-04T15:24:27.601Z,32.78
2022-09-04T15:27:01.584Z,31.42
2022-09-04T15:29:38.338Z,31.74
2022-09-04T15:32:14.089Z,31.63
2022-09-04T15:34:44.367Z,30.64
2022-09-04T15:37:22.505Z,29.62
2022-09-04T15:40:01.628Z,30.13
2022-09-04T15:42:45.434Z,29.77
2022-09-04T15:45:25.286Z,29.82
2022-09-04T15:48:11.421Z,28.83
2022-09-04T15:50:57.606Z,28.28
2022-09-04T15:53:33.432Z,27.19
2022-09-04T15:56:10.640Z,27.34
2022-09-04T15:58:53.346Z,26.37
2022-09-04T16:01:26.049Z,25.61
2022-09-04T16:04:07.439Z,25.73
2022-09-04T16:06:47.976Z,24.87
2022-09-04T16:09:26.043Z,25.19
2022-09-04T16:12:10.758Z,23.68
2022-09-04T16:14:45.104Z,23.10
2022-09-04T16:17:20.496Z,22.78
2022-09-04T16:20:00.585Z,22.43
2022-09-04T16:22:38.799Z,22.19
2022-09-04T16:25:13.602Z,21.73
2022-09-04T16:27:50.424Z,21.34
2022-09-04T16:30:35.190Z,20.97
2022-09-04T16:33:20.552Z,20.84
2022-09-04T16:36:03.339Z,21.00
2022-09-04T16:38:40.620Z,20.72
2022-09-04T16:41:17.986Z,20.84
2022-09-04T16:44:22.104Z,20.80
2022-09-04T16:47:05.117Z,20.34
2022-09-04T16:49:49.553Z,20.51
2022-09-04T16:52:32.127Z,20.47
2022-09-04T16:55:10.082Z,20.29
2022-09-04T16:57:51.443Z,20.11
2022-09-04T17:00:22.396Z,20.11
2022-09-04T17:02:57.302Z,20.07
2022-09-04T17:05:35.143Z,19.77
2022-09-04T17:08:12.383Z,19.69
2022-09-04T17:10:47.357Z,19.59
2022-09-04T17:13:27.966Z,19.39
2022-09-04T17:16:02.828Z,19.26
2022-09-04T17:18:32.830Z,19.16
2022-09-04T17:26:16.746Z,19.12
2022-09-04T17:28:58.403Z,19.15
2022-09-04T17:29:11.492Z,18.94
2022-09-04T17:30:25.642Z,18.61
2022-09-04T17:37:09.916Z,18.67
2022-09-04T17:40:39.787Z,18.60
2022-09-04T17:40:46.601Z,18.47
2022-09-04T17:42:08.381Z,18.36
2022-09-04T17:44:47.423Z,18.22
2022-09-04T17:47:28.646Z,18.11
2022-09-04T17:49:59.745Z,17.92
2022-09-04T17:52:32.711Z,17.87
2022-09-04T17:55:07.325Z,17.78
2022-09-04T17:57:53.520Z,17.70
2022-09-04T18:00:26.238Z,17.66
2022-09-04T18:03:05.035Z,17.69
2022-09-04T18:05:40.017Z,17.57
2022-09-04T18:08:30.003Z,17.46
2022-09-04T18:11:07.431Z,17.30
2022-09-04T18:13:44.073Z,17.16
2022-09-04T18:16:24.157Z,17.13
2022-09-04T18:18:56.902Z,17.07
2022-09-04T18:21:31.758Z,17.19
2022-09-04T18:24:06.741Z,17.13
2022-09-04T18:26:43.228Z,17.08
2022-09-04T18:31:11.253Z,16.89
2022-09-04T18:37:18.001Z,16.83
2022-09-04T18:37:25.659Z,16.53
2022-09-04T18:38:36.397Z,16.38
2022-09-04T18:44:58.479Z,16.27
2022-09-04T18:50:29.199Z,16.12
2022-09-04T18:50:29.725Z,16.16
2022-09-04T18:50:49.356Z,16.07
2022-09-04T18:53:04.603Z,16.10
2022-09-04T18:55:42.036Z,15.97
2022-09-04T18:58:46.469Z,15.97
2022-09-04T19:01:26.814Z,15.91
2022-09-04T19:03:59.637Z,15.86
2022-09-04T19:06:35.130Z,15.76
2022-09-04T19:09:14.900Z,15.86
2022-09-04T19:11:51.568Z,15.85
2022-09-04T19:14:25.424Z,15.83
2022-09-04T19:17:00.370Z,15.83
2022-09-04T19:19:37.866Z,15.85
2022-09-04T19:22:14.416Z,15.91
2022-09-04T19:24:51.841Z,15.85
2022-09-04T19:27:29.020Z,15.69
2022-09-04T19:30:18.264Z,15.81
2022-09-04T19:33:06.229Z,15.83
2022-09-04T19:35:39.617Z,15.85
2022-09-04T19:45:56.555Z,15.69
2022-09-04T19:46:08.759Z,15.78
2022-09-04T19:46:15.050Z,15.77
2022-09-04T19:47:08.717Z,15.85
2022-09-04T19:53:18.761Z,15.71
2022-09-04T19:53:31.031Z,15.73
2022-09-04T19:55:54.092Z,15.63
2022-09-04T19:58:35.201Z,15.46
2022-09-04T20:01:14.338Z,15.53
2022-09-04T20:03:49.986Z,15.56
2022-09-04T20:06:27.375Z,15.47
2022-09-04T20:09:03.607Z,15.44
2022-09-04T20:11:39.716Z,15.18
2022-09-04T20:14:21.759Z,15.24
2022-09-04T20:17:09.451Z,15.10
2022-09-04T20:19:43.456Z,15.14
2022-09-04T20:22:28.508Z,15.07
2022-09-04T20:25:13.723Z,15.10
2022-09-04T20:27:47.188Z,15.04
2022-09-04T20:30:22.496Z,14.88
2022-09-04T20:32:57.741Z,14.75
2022-09-04T20:35:35.257Z,14.68
2022-09-04T20:38:22.761Z,14.79
2022-09-04T20:40:58.142Z,14.72
2022-09-04T20:43:37.210Z,14.58
2022-09-04T20:48:59.539Z,14.64
2022-09-04T20:52:57.019Z,14.53
2022-09-04T20:52:59.022Z,14.55
2022-09-04T20:55:19.302Z,14.38
2022-09-04T21:03:05.189Z,14.37
2022-09-04T21:03:19.848Z,14.34
2022-09-04T21:04:13.272Z,14.06
2022-09-04T21:06:48.473Z,14.20
2022-09-04T21:09:34.156Z,14.01
2022-09-04T21:12:21.895Z,13.80
2022-09-04T21:14:57.402Z,13.88
2022-09-04T21:17:35.929Z,14.03
2022-09-04T21:20:21.889Z,14.03
2022-09-04T21:23:07.627Z,13.99
2022-09-04T21:25:46.682Z,13.75
2022-09-04T21:29:11.207Z,13.84
2022-09-04T21:32:14.976Z,13.89
2022-09-04T21:35:02.989Z,13.75
2022-09-04T21:37:45.825Z,13.88
2022-09-04T21:40:51.187Z,13.87
2022-09-04T21:43:54.324Z,13.59
2022-09-04T21:46:47.716Z,13.62
2022-09-04T21:49:55.557Z,13.77
2022-09-04T21:52:56.292Z,13.63
2022-09-04T22:01:26.712Z,13.54
2022-09-04T22:02:43.810Z,13.43
2022-09-04T22:02:44.245Z,13.48
2022-09-04T22:05:08.693Z,13.28
2022-09-04T22:11:08.824Z,13.24
2022-09-04T22:13:38.287Z,13.09
2022-09-04T22:13:51.082Z,13.13
2022-09-04T22:16:37.767Z,13.14
2022-09-04T22:19:47.414Z,13.17
2022-09-04T22:22:38.896Z,13.15
2022-09-04T22:25:33.219Z,13.21
2022-09-04T22:28:41.224Z,13.17
2022-09-04T22:31:53.665Z,13.06
2022-09-04T22:35:17.069Z,13.05
2022-09-04T22:39:11.216Z,12.75
2022-09-04T22:42:01.438Z,12.81
2022-09-04T22:44:43.504Z,12.91
2022-09-04T22:47:44.159Z,12.75
2022-09-04T22:50:49.012Z,12.84
2022-09-04T22:53:46.855Z,12.68
2022-09-04T22:56:24.137Z,12.92
2022-09-04T22:59:27.720Z,12.94
2022-09-04T23:02:19.433Z,12.88
2022-09-04T23:05:05.281Z,12.83
2022-09-04T23:13:42.158Z,12.65
2022-09-04T23:14:02.833Z,12.59
2022-09-04T23:14:32.814Z,12.48
2022-09-04T23:17:37.306Z,12.50
2022-09-04T23:26:34.728Z,12.43
2022-09-04T23:26:57.907Z,12.49
2022-09-04T23:27:29.373Z,12.41
2022-09-04T23:30:25.197Z,12.36
2022-09-04T23:33:40.401Z,12.45
2022-09-04T23:36:50.039Z,12.50
2022-09-04T23:39:58.064Z,12.39
2022-09-04T23:43:30.594Z,12.37
2022-09-04T23:46:45.000Z,12.23
2022-09-04T23:49:52.992Z,12.20
2022-09-04T23:52:53.771Z,12.31
2022-09-04T23:56:01.724Z,12.37
2022-09-04T23:59:25.641Z,12.48
